createdAt,value
2017-08-12T00:00:07.993Z,97.14
2017-08-12T00:00:35.984Z,97.23
2017-08-12T00:01:04.024Z,97.14
2017-08-12T00:01:32.197Z,97.14
2017-08-12T00:02:00.267Z,97.23
2017-08-12T00:02:28.345Z,97.38
2017-08-12T00:02:56.512Z,96.94
2017-08-12T00:03:24.608Z,96.75
2017-08-12T00:03:52.504Z,96.94
2017-08-12T00:04:20.769Z,96.56
2017-08-12T00:04:49.272Z,96.75
2017-08-12T00:05:17.268Z,96.94
2017-08-12T00:05:45.454Z,96.94
2017-08-12T00:06:13.619Z,96.99
2017-08-12T00:06:41.795Z,97.14
2017-08-12T00:07:09.959Z,97.14
2017-08-12T00:07:38.179Z,97.23
2017-08-12T00:08:06.499Z,97.18
2017-08-12T00:08:34.681Z,96.89
2017-08-12T00:09:02.786Z,96.32
2017-08-12T00:09:30.953Z,96.22
2017-08-12T00:09:58.918Z,96.42
2017-08-12T00:10:27.085Z,96.42
2017-08-12T00:10:55.259Z,96.8
2017-08-12T00:11:23.258Z,96.61
2017-08-12T00:11:51.444Z,96.8
2017-08-12T00:12:19.609Z,96.32
2017-08-12T00:12:47.681Z,96.61
2017-08-12T00:13:15.770Z,96.22
2017-08-12T00:13:43.944Z,96.32
2017-08-12T00:14:12.033Z,96.42
2017-08-12T00:14:40.214Z,96.22
2017-08-12T00:15:08.413Z,96.42
2017-08-12T00:15:36.453Z,96.32
2017-08-12T00:16:04.617Z,96.7
2017-08-12T00:16:32.700Z,96.42
2017-08-12T00:17:15.366Z,96.7
2017-08-12T00:17:43.434Z,96.42
2017-08-12T00:18:11.512Z,96.42
2017-08-12T00:18:39.690Z,96.03
2017-08-12T00:19:07.852Z,96.42
2017-08-12T00:19:35.926Z,96.42
2017-08-12T00:20:04.030Z,96.61
2017-08-12T00:20:32.165Z,96.42
2017-08-12T00:21:00.249Z,96.61
2017-08-12T00:21:28.318Z,96.42
2017-08-12T00:21:56.501Z,96.7
2017-08-12T00:22:24.693Z,96.61
2017-08-12T00:22:52.814Z,96.42
2017-08-12T00:23:20.876Z,96.22
2017-08-12T00:23:48.944Z,96.03
2017-08-12T00:24:17.015Z,96.42
2017-08-12T00:24:45.214Z,96.42
2017-08-12T00:25:13.312Z,96.42
2017-08-12T00:25:41.499Z,96.13
2017-08-12T00:26:09.679Z,96.32
2017-08-12T00:26:37.685Z,96.51
2017-08-12T00:27:05.592Z,96.22
2017-08-12T00:27:33.654Z,96.03
2017-08-12T00:28:01.832Z,95.84
2017-08-12T00:28:29.991Z,95.46
2017-08-12T00:28:58.167Z,95.56
2017-08-12T00:29:26.338Z,95.65
2017-08-12T00:29:54.510Z,95.84
2017-08-12T00:30:22.297Z,95.75
2017-08-12T00:30:50.474Z,95.94
2017-08-12T00:31:19.438Z,95.94
2017-08-12T00:32:02.296Z,95.94
2017-08-12T00:32:30.369Z,96.03
2017-08-12T00:32:58.510Z,95.75
2017-08-12T00:33:26.690Z,95.94
2017-08-12T00:33:54.769Z,95.36
2017-08-12T00:34:22.930Z,95.36
2017-08-12T00:34:51.314Z,95.65
2017-08-12T00:35:19.306Z,95.56
2017-08-12T00:35:47.297Z,95.65
2017-08-12T00:36:15.462Z,95.46
2017-08-12T00:36:43.662Z,95.46
2017-08-12T00:37:11.647Z,95.46
2017-08-12T00:37:39.803Z,95.56
2017-08-12T00:38:07.975Z,95.94
2017-08-12T00:38:36.135Z,95.75
2017-08-12T00:39:04.231Z,95.84
2017-08-12T00:39:32.407Z,95.65
2017-08-12T00:40:00.568Z,95.94
2017-08-12T00:40:28.642Z,96.42
2017-08-12T00:40:56.722Z,96.32
2017-08-12T00:41:24.974Z,96.51
2017-08-12T00:41:53.191Z,96.22
2017-08-12T00:42:21.392Z,96.61
2017-08-12T00:42:49.487Z,96.75
2017-08-12T00:43:17.559Z,96.37
2017-08-12T00:43:45.788Z,96.42
2017-08-12T00:44:13.863Z,96.13
2017-08-12T00:44:41.942Z,96.51
2017-08-12T00:45:10.011Z,96.42
2017-08-12T00:45:38.091Z,96.51
2017-08-12T00:46:06.178Z,96.7
2017-08-12T00:46:34.353Z,96.13
2017-08-12T00:47:02.629Z,96.32
2017-08-12T00:47:30.736Z,96.22
2017-08-12T00:47:58.812Z,96.32
2017-08-12T00:48:27.558Z,96.32
2017-08-12T00:48:55.734Z,96.13
2017-08-12T00:49:23.903Z,96.13
2017-08-12T00:49:51.983Z,96.22
2017-08-12T00:50:19.960Z,95.94
2017-08-12T00:50:48.085Z,96.13
2017-08-12T00:51:15.966Z,96.32
2017-08-12T00:51:44.139Z,96.03
2017-08-12T00:52:12.240Z,96.32
2017-08-12T00:52:40.413Z,96.03
2017-08-12T00:53:08.310Z,96.22
2017-08-12T00:53:36.473Z,96.51
2017-08-12T00:54:04.551Z,96.42
2017-08-12T00:54:32.637Z,96.42
2017-08-12T00:55:00.846Z,96.8
2017-08-12T00:55:29.021Z,96.22
2017-08-12T00:55:57.094Z,96.42
2017-08-12T00:56:25.087Z,96.51
2017-08-12T00:56:53.256Z,96.61
2017-08-12T00:57:21.241Z,96.32
2017-08-12T00:57:49.287Z,96.61
2017-08-12T00:58:17.379Z,96.8
2017-08-12T00:58:45.559Z,96.51
2017-08-12T00:59:13.647Z,96.51
2017-08-12T00:59:41.825Z,96.51
2017-08-12T01:00:09.988Z,96.22
2017-08-12T01:00:38.068Z,96.42
2017-08-12T01:01:06.161Z,96.37
2017-08-12T01:01:34.320Z,96.42
2017-08-12T01:02:02.483Z,96.22
2017-08-12T01:02:30.649Z,96.51
2017-08-12T01:02:58.827Z,96.94
2017-08-12T01:03:26.999Z,96.8
2017-08-12T01:03:55.183Z,97.14
2017-08-12T01:04:23.156Z,97.09
2017-08-12T01:04:51.225Z,97.14
2017-08-12T01:05:19.391Z,96.66
2017-08-12T01:05:47.543Z,96.75
2017-08-12T01:06:15.613Z,96.94
2017-08-12T01:06:43.800Z,96.94
2017-08-12T01:07:11.959Z,96.8
2017-08-12T01:07:40.024Z,97.47
2017-08-12T01:08:08.104Z,97.04
2017-08-12T01:08:36.225Z,97.42
2017-08-12T01:09:04.258Z,97.42
2017-08-12T01:09:32.344Z,97.61
2017-08-12T01:10:00.416Z,97.71
2017-08-12T01:10:28.578Z,97.42
2017-08-12T01:10:56.760Z,97.33
2017-08-12T01:11:24.919Z,97.9
2017-08-12T01:11:52.911Z,97.61
2017-08-12T01:12:21.074Z,97.9
2017-08-12T01:12:49.260Z,97.42
2017-08-12T01:13:17.460Z,97.52
2017-08-12T01:13:45.624Z,97.42
2017-08-12T01:14:13.721Z,97.42
2017-08-12T01:14:41.705Z,97.33
2017-08-12T01:15:09.859Z,97.8
2017-08-12T01:15:38.020Z,97.71
2017-08-12T01:16:06.225Z,97.38
2017-08-12T01:16:34.381Z,97.38
2017-08-12T01:17:02.465Z,97.71
2017-08-12T01:17:30.542Z,97.56
2017-08-12T01:17:58.609Z,97.52
2017-08-12T01:18:26.810Z,97.71
2017-08-12T01:18:54.890Z,97.33
2017-08-12T01:19:23.046Z,97.47
2017-08-12T01:19:51.111Z,97.71
2017-08-12T01:20:19.294Z,97.33
2017-08-12T01:20:47.373Z,97.61
2017-08-12T01:21:15.552Z,97.8
2017-08-12T01:21:43.621Z,97.42
2017-08-12T01:22:11.789Z,97.33
2017-08-12T01:22:40.016Z,97.61
2017-08-12T01:23:08.180Z,97.61
2017-08-12T01:23:36.352Z,97.71
2017-08-12T01:24:04.525Z,97.42
2017-08-12T01:24:32.517Z,97.52
2017-08-12T01:25:00.677Z,97.14
2017-08-12T01:25:28.789Z,97.23
2017-08-12T01:25:56.870Z,97.52
2017-08-12T01:26:25.034Z,97.42
2017-08-12T01:26:53.193Z,97.52
2017-08-12T01:27:21.355Z,97.42
2017-08-12T01:27:49.440Z,97.61
2017-08-12T01:28:17.523Z,98.1
2017-08-12T01:28:45.708Z,97.8
2017-08-12T01:29:13.868Z,97.71
2017-08-12T01:29:42.062Z,97.9
2017-08-12T01:30:10.250Z,97.8
2017-08-12T01:30:38.410Z,97.8
2017-08-12T01:31:06.588Z,98
2017-08-12T01:31:34.646Z,97.61
2017-08-12T01:32:02.814Z,97.61
2017-08-12T01:32:30.997Z,98.1
2017-08-12T01:32:59.164Z,98.1
2017-08-12T01:33:27.331Z,98.19
2017-08-12T01:33:55.502Z,98.28
2017-08-12T01:34:23.566Z,97.8
2017-08-12T01:34:51.723Z,98.1
2017-08-12T01:35:19.827Z,98.47
2017-08-12T01:35:48.006Z,98.67
2017-08-12T01:36:16.218Z,98.47
2017-08-12T01:36:44.395Z,98.47
2017-08-12T01:37:12.564Z,98.28
2017-08-12T01:37:40.743Z,98.47
2017-08-12T01:38:08.929Z,98.47
2017-08-12T01:38:37.026Z,98.67
2017-08-12T01:39:05.211Z,98.67
2017-08-12T01:39:33.379Z,98.67
2017-08-12T01:40:01.554Z,98.67
2017-08-12T01:40:29.722Z,98.38
2017-08-12T01:40:57.810Z,98.28
2017-08-12T01:41:25.878Z,98.47
2017-08-12T01:41:54.049Z,98.47
2017-08-12T01:42:22.145Z,98.47
2017-08-12T01:42:50.226Z,98.47
2017-08-12T01:43:18.396Z,98.38
2017-08-12T01:43:46.516Z,98.57
2017-08-12T01:44:14.714Z,98.19
2017-08-12T01:44:42.792Z,98.67
2017-08-12T01:45:10.861Z,98.67
2017-08-12T01:45:38.853Z,98.86
2017-08-12T01:46:07.031Z,98.86
2017-08-12T01:46:35.205Z,98.96
2017-08-12T01:47:03.271Z,98.86
2017-08-12T01:47:31.444Z,98.96
2017-08-12T01:47:59.623Z,98.67
2017-08-12T01:48:27.589Z,98.38
2017-08-12T01:48:55.769Z,98.76
2017-08-12T01:49:23.944Z,98.86
2017-08-12T01:49:52.104Z,98.67
2017-08-12T01:50:20.263Z,98.57
2017-08-12T01:50:48.437Z,98.47
2017-08-12T01:51:16.514Z,98.67
2017-08-12T01:51:44.676Z,98.47
2017-08-12T01:52:12.831Z,98.47
2017-08-12T01:52:40.904Z,98.86
2017-08-12T01:53:09.067Z,98.96
2017-08-12T01:53:37.219Z,98.96
2017-08-12T01:54:05.293Z,98.76
2017-08-12T01:54:33.358Z,98.86
2017-08-12T01:55:01.452Z,98.67
2017-08-12T01:55:29.517Z,98.96
2017-08-12T01:55:57.593Z,98.86
2017-08-12T01:56:25.759Z,98.96
2017-08-12T01:56:53.738Z,98.96
2017-08-12T01:57:21.836Z,98.67
2017-08-12T01:57:49.998Z,99.05
2017-08-12T01:58:18.241Z,99.24
2017-08-12T01:58:46.317Z,99.34
2017-08-12T01:59:14.521Z,99.15
2017-08-12T01:59:42.496Z,99.34
2017-08-12T02:00:10.678Z,99.24
2017-08-12T02:00:38.851Z,98.96
2017-08-12T02:01:07.212Z,99.24
2017-08-12T02:01:35.384Z,99.05
2017-08-12T02:02:03.546Z,99.24
2017-08-12T02:02:31.530Z,99.43
2017-08-12T02:02:59.510Z,99.24
2017-08-12T02:03:27.610Z,99.43
2017-08-12T02:03:55.776Z,99.63
2017-08-12T02:04:23.782Z,99.99
2017-08-12T02:04:51.868Z,99.82
2017-08-12T02:05:19.840Z,99.82
2017-08-12T02:05:47.916Z,99.99
2017-08-12T02:06:16.087Z,99.99
2017-08-12T02:06:44.287Z,99.99
2017-08-12T02:07:12.459Z,99.91
2017-08-12T02:07:40.691Z,99.99
2017-08-12T02:08:08.714Z,99.99
2017-08-12T02:08:36.783Z,99.99
2017-08-12T02:09:04.849Z,99.99
2017-08-12T02:09:32.912Z,99.82
2017-08-12T02:10:01.068Z,99.99
2017-08-12T02:10:29.131Z,99.99
2017-08-12T02:10:57.344Z,99.99
2017-08-12T02:11:25.502Z,99.99
2017-08-12T02:11:53.670Z,99.99
2017-08-12T02:12:21.747Z,99.99
2017-08-12T02:12:49.908Z,99.99
2017-08-12T02:13:17.894Z,99.99
2017-08-12T02:13:45.986Z,99.99
2017-08-12T02:14:14.159Z,99.99
2017-08-12T02:14:42.042Z,99.99
2017-08-12T02:15:10.114Z,99.99
2017-08-12T02:15:38.272Z,99.99
2017-08-12T02:16:06.381Z,99.99
2017-08-12T02:16:34.481Z,99.99
2017-08-12T02:17:02.651Z,99.99
2017-08-12T02:17:30.829Z,99.99
2017-08-12T02:17:58.992Z,99.99
2017-08-12T02:18:27.084Z,99.99
2017-08-12T02:18:55.249Z,99.99
2017-08-12T02:19:23.337Z,99.99
2017-08-12T02:19:51.502Z,99.99
2017-08-12T02:20:20.446Z,99.99
2017-08-12T02:20:48.552Z,99.99
2017-08-12T02:21:16.710Z,99.99
2017-08-12T02:21:44.883Z,99.99
2017-08-12T02:22:13.099Z,99.99
2017-08-12T02:22:41.162Z,99.99
2017-08-12T02:23:09.252Z,99.99
2017-08-12T02:23:37.449Z,99.99
2017-08-12T02:24:05.518Z,99.99
2017-08-12T02:24:33.670Z,99.99
2017-08-12T02:25:01.733Z,99.99
2017-08-12T02:25:29.800Z,99.91
2017-08-12T02:25:57.961Z,99.99
2017-08-12T02:26:26.129Z,99.99
2017-08-12T02:26:54.113Z,99.99
2017-08-12T02:27:22.173Z,99.99
2017-08-12T02:27:50.395Z,99.99
2017-08-12T02:28:18.575Z,99.99
2017-08-12T02:28:46.640Z,99.99
2017-08-12T02:29:14.815Z,99.99
2017-08-12T02:29:42.976Z,99.91
2017-08-12T02:30:11.139Z,99.99
2017-08-12T02:30:39.320Z,99.99
2017-08-12T02:31:07.498Z,99.99
2017-08-12T02:31:35.650Z,99.99
2017-08-12T02:32:03.935Z,99.99
2017-08-12T02:32:32.095Z,99.99
2017-08-12T02:32:59.988Z,99.99
2017-08-12T02:33:28.051Z,99.99
2017-08-12T02:33:56.229Z,99.99
2017-08-12T02:34:24.305Z,99.99
2017-08-12T02:34:52.294Z,99.99
2017-08-12T02:35:20.366Z,99.99
2017-08-12T02:35:48.451Z,99.99
2017-08-12T02:36:16.624Z,99.99
2017-08-12T02:36:44.800Z,99.99
2017-08-12T02:37:12.979Z,99.99
2017-08-12T02:37:41.145Z,99.99
2017-08-12T02:38:09.303Z,99.99
2017-08-12T02:38:37.364Z,99.99
2017-08-12T02:39:05.521Z,99.99
2017-08-12T02:39:33.677Z,99.99
2017-08-12T02:40:01.839Z,99.99
2017-08-12T02:40:29.940Z,99.99
2017-08-12T02:40:58.106Z,99.99
2017-08-12T02:41:26.177Z,99.99
2017-08-12T02:41:54.259Z,99.99
2017-08-12T02:42:22.410Z,99.99
2017-08-12T02:42:50.584Z,99.99
2017-08-12T02:43:18.748Z,99.99
2017-08-12T02:43:46.856Z,99.99
2017-08-12T02:44:15.015Z,99.99
2017-08-12T02:44:42.905Z,99.99
2017-08-12T02:45:11.060Z,99.99
2017-08-12T02:45:39.244Z,99.99
2017-08-12T02:46:07.315Z,99.99
2017-08-12T02:46:35.393Z,99.99
2017-08-12T02:47:03.567Z,99.99
2017-08-12T02:47:31.743Z,99.99
2017-08-12T02:47:59.806Z,99.99
2017-08-12T02:48:27.688Z,99.99
2017-08-12T02:48:55.750Z,99.99
2017-08-12T02:49:23.737Z,99.99
2017-08-12T02:49:51.923Z,99.99
2017-08-12T02:50:20.080Z,99.99
2017-08-12T02:50:48.143Z,99.99
2017-08-12T02:51:16.218Z,99.99
2017-08-12T02:51:44.397Z,99.99
2017-08-12T02:52:12.468Z,99.99
2017-08-12T02:52:40.530Z,99.99
2017-08-12T02:53:08.686Z,99.99
2017-08-12T02:53:36.750Z,99.99
2017-08-12T02:54:04.907Z,99.99
2017-08-12T02:54:32.981Z,99.99
2017-08-12T02:55:01.054Z,99.99
2017-08-12T02:55:29.150Z,99.99
2017-08-12T02:55:57.218Z,99.99
2017-08-12T02:56:25.116Z,99.99
2017-08-12T02:56:53.318Z,99.99
2017-08-12T02:57:21.490Z,99.99
2017-08-12T02:57:49.376Z,99.99
2017-08-12T02:58:17.538Z,99.99
2017-08-12T02:58:45.603Z,99.99
2017-08-12T02:59:13.788Z,99.99
2017-08-12T02:59:41.965Z,99.99
2017-08-12T03:00:10.146Z,99.99
2017-08-12T03:00:38.339Z,99.99
2017-08-12T03:01:06.418Z,99.99
2017-08-12T03:01:34.506Z,99.99
2017-08-12T03:02:02.663Z,99.99
2017-08-12T03:02:30.817Z,99.99
2017-08-12T03:02:58.982Z,99.99
2017-08-12T03:03:27.141Z,99.99
2017-08-12T03:03:55.305Z,99.99
2017-08-12T03:04:23.465Z,99.99
2017-08-12T03:04:51.622Z,99.99
2017-08-12T03:05:19.685Z,99.99
2017-08-12T03:05:47.846Z,99.99
2017-08-12T03:06:15.906Z,99.99
2017-08-12T03:06:44.068Z,99.99
2017-08-12T03:07:12.472Z,99.99
2017-08-12T03:07:40.638Z,99.99
2017-08-12T03:08:08.634Z,99.99
2017-08-12T03:08:36.608Z,99.99
2017-08-12T03:09:04.766Z,99.99
2017-08-12T03:09:32.828Z,99.99
2017-08-12T03:10:00.907Z,99.99
2017-08-12T03:10:28.994Z,99.99
2017-08-12T03:10:57.185Z,99.99
2017-08-12T03:11:25.351Z,99.99
2017-08-12T03:11:53.524Z,99.99
2017-08-12T03:12:21.586Z,99.99
2017-08-12T03:12:49.746Z,99.99
2017-08-12T03:13:17.905Z,99.99
2017-08-12T03:13:46.064Z,99.99
2017-08-12T03:14:14.134Z,99.99
2017-08-12T03:14:42.208Z,99.99
2017-08-12T03:15:10.392Z,99.99
2017-08-12T03:15:38.459Z,99.99
2017-08-12T03:16:06.526Z,99.99
2017-08-12T03:16:34.595Z,99.99
2017-08-12T03:17:02.756Z,99.99
2017-08-12T03:17:30.913Z,99.99
2017-08-12T03:17:59.074Z,99.99
2017-08-12T03:18:27.263Z,99.99
2017-08-12T03:18:55.428Z,99.99
2017-08-12T03:19:23.421Z,99.99
2017-08-12T03:19:51.591Z,99.99
2017-08-12T03:20:19.670Z,99.99
2017-08-12T03:20:47.822Z,99.99
2017-08-12T03:21:15.998Z,99.99
2017-08-12T03:21:58.574Z,99.99
2017-08-12T03:22:26.744Z,99.99
2017-08-12T03:22:54.724Z,99.99
2017-08-12T03:23:22.895Z,99.99
2017-08-12T03:23:51.092Z,99.99
2017-08-12T03:24:19.261Z,99.99
2017-08-12T03:24:47.598Z,99.99
2017-08-12T03:25:15.775Z,99.99
2017-08-12T03:25:43.957Z,99.99
2017-08-12T03:26:12.019Z,99.99
2017-08-12T03:26:39.994Z,99.99
2017-08-12T03:27:08.176Z,99.99
2017-08-12T03:27:36.249Z,99.99
2017-08-12T03:28:04.230Z,99.99
2017-08-12T03:28:32.404Z,99.99
2017-08-12T03:29:00.476Z,99.99
2017-08-12T03:29:28.637Z,99.99
2017-08-12T03:29:56.852Z,99.99
2017-08-12T03:30:24.926Z,99.99
2017-08-12T03:30:53.082Z,99.99
2017-08-12T03:31:21.251Z,99.99
2017-08-12T03:31:49.252Z,99.99
2017-08-12T03:32:17.416Z,99.99
2017-08-12T03:32:45.410Z,99.99
2017-08-12T03:33:13.573Z,99.99
2017-08-12T03:33:41.762Z,99.99
2017-08-12T03:34:09.834Z,99.99
2017-08-12T03:34:37.899Z,99.99
2017-08-12T03:35:05.961Z,99.99
2017-08-12T03:35:34.136Z,99.99
2017-08-12T03:36:02.111Z,99.99
2017-08-12T03:36:30.244Z,99.99
2017-08-12T03:36:58.398Z,99.99
2017-08-12T03:37:26.566Z,99.99
2017-08-12T03:37:54.754Z,99.99
2017-08-12T03:38:22.845Z,99.99
2017-08-12T03:38:51.040Z,99.99
2017-08-12T03:39:19.228Z,99.99
2017-08-12T03:39:47.299Z,99.99
2017-08-12T03:40:15.486Z,99.99
2017-08-12T03:40:43.822Z,99.99
2017-08-12T03:41:12.140Z,99.99
2017-08-12T03:41:40.271Z,99.99
2017-08-12T03:42:08.360Z,99.99
2017-08-12T03:42:36.416Z,99.99
2017-08-12T03:43:04.584Z,99.99
2017-08-12T03:43:32.746Z,99.99
2017-08-12T03:44:00.918Z,99.99
2017-08-12T03:44:28.907Z,99.99
2017-08-12T03:44:57.065Z,99.99
2017-08-12T03:45:25.226Z,99.99
2017-08-12T03:45:53.317Z,99.99
2017-08-12T03:46:21.474Z,99.99
2017-08-12T03:46:49.631Z,99.99
2017-08-12T03:47:17.638Z,99.99
2017-08-12T03:47:45.710Z,99.99
2017-08-12T03:48:13.788Z,99.99
2017-08-12T03:48:41.967Z,99.99
2017-08-12T03:49:10.140Z,99.99
2017-08-12T03:49:38.305Z,99.99
2017-08-12T03:50:06.361Z,99.99
2017-08-12T03:50:34.436Z,99.99
2017-08-12T03:51:02.594Z,99.99
2017-08-12T03:51:30.762Z,99.99
2017-08-12T03:51:58.922Z,99.99
2017-08-12T03:52:27.093Z,99.99
2017-08-12T03:52:55.246Z,99.99
2017-08-12T03:53:23.414Z,99.99
2017-08-12T03:53:51.577Z,99.99
2017-08-12T03:54:19.661Z,99.99
2017-08-12T03:54:47.818Z,99.99
2017-08-12T03:55:15.991Z,99.99
2017-08-12T03:55:44.163Z,99.99
2017-08-12T03:56:12.134Z,99.99
2017-08-12T03:56:40.297Z,99.99
2017-08-12T03:57:08.375Z,99.99
2017-08-12T03:57:36.446Z,99.99
2017-08-12T03:58:04.521Z,99.99
2017-08-12T03:58:32.702Z,99.99
2017-08-12T03:59:00.870Z,99.99
2017-08-12T03:59:29.037Z,99.99
2017-08-12T03:59:57.194Z,99.99
2017-08-12T04:00:25.177Z,99.99
2017-08-12T04:00:53.355Z,99.99
2017-08-12T04:01:21.522Z,99.99
2017-08-12T04:01:49.688Z,99.99
2017-08-12T04:02:17.756Z,99.99
2017-08-12T04:02:45.964Z,99.99
2017-08-12T04:03:14.137Z,99.99
2017-08-12T04:03:42.301Z,99.99
2017-08-12T04:04:10.476Z,99.99
2017-08-12T04:04:38.630Z,99.99
2017-08-12T04:05:06.709Z,99.99
2017-08-12T04:05:34.870Z,99.99
2017-08-12T04:06:03.027Z,99.99
2017-08-12T04:06:31.190Z,99.99
2017-08-12T04:06:59.356Z,99.99
2017-08-12T04:07:27.524Z,99.99
2017-08-12T04:07:55.581Z,99.99
2017-08-12T04:08:23.666Z,99.99
2017-08-12T04:08:51.824Z,99.99
2017-08-12T04:09:20.003Z,99.99
2017-08-12T04:09:48.083Z,99.99
2017-08-12T04:10:16.257Z,99.99
2017-08-12T04:10:44.413Z,99.99
2017-08-12T04:11:12.572Z,99.99
2017-08-12T04:11:40.634Z,99.99
2017-08-12T04:12:08.795Z,99.99
2017-08-12T04:12:36.871Z,99.99
2017-08-12T04:13:04.861Z,99.99
2017-08-12T04:13:32.933Z,99.99
2017-08-12T04:14:01.121Z,99.99
2017-08-12T04:14:29.110Z,99.99
2017-08-12T04:14:57.269Z,99.99
2017-08-12T04:15:25.350Z,99.99
2017-08-12T04:15:53.510Z,99.99
2017-08-12T04:16:21.586Z,99.99
2017-08-12T04:16:49.554Z,99.99
2017-08-12T04:17:17.722Z,99.99
2017-08-12T04:17:45.892Z,99.99
2017-08-12T04:18:14.046Z,99.99
2017-08-12T04:18:42.209Z,99.99
2017-08-12T04:19:10.364Z,99.99
2017-08-12T04:19:38.339Z,99.99
2017-08-12T04:20:06.417Z,99.99
2017-08-12T04:20:34.495Z,99.99
2017-08-12T04:21:02.654Z,99.99
2017-08-12T04:21:30.861Z,99.99
2017-08-12T04:21:59.108Z,99.99
2017-08-12T04:22:27.199Z,99.99
2017-08-12T04:22:55.354Z,99.99
2017-08-12T04:23:23.432Z,99.99
2017-08-12T04:23:51.601Z,99.99
2017-08-12T04:24:19.757Z,99.99
2017-08-12T04:24:47.661Z,99.99
2017-08-12T04:25:15.722Z,99.99
2017-08-12T04:25:58.406Z,99.99
2017-08-12T04:26:27.002Z,99.99
2017-08-12T04:26:55.086Z,99.99
2017-08-12T04:27:23.164Z,99.99
2017-08-12T04:27:51.329Z,99.99
2017-08-12T04:28:19.637Z,99.99
2017-08-12T04:28:47.845Z,99.99
2017-08-12T04:29:15.904Z,99.99
2017-08-12T04:29:43.974Z,99.99
2017-08-12T04:30:11.955Z,99.99
2017-08-12T04:30:40.131Z,99.99
2017-08-12T04:31:08.327Z,99.99
2017-08-12T04:31:36.487Z,99.99
2017-08-12T04:32:04.567Z,99.99
2017-08-12T04:32:32.720Z,99.99
2017-08-12T04:33:00.879Z,99.99
2017-08-12T04:33:29.032Z,99.99
2017-08-12T04:33:57.199Z,99.99
2017-08-12T04:34:25.368Z,99.99
2017-08-12T04:34:53.515Z,99.99
2017-08-12T04:35:21.633Z,99.99
2017-08-12T04:35:49.790Z,99.99
2017-08-12T04:36:17.947Z,99.99
2017-08-12T04:36:46.112Z,99.99
2017-08-12T04:37:14.179Z,99.99
2017-08-12T04:37:42.366Z,99.99
2017-08-12T04:38:10.728Z,99.99
2017-08-12T04:38:38.881Z,99.99
2017-08-12T04:39:07.040Z,99.99
2017-08-12T04:39:35.112Z,99.99
2017-08-12T04:40:03.274Z,99.99
2017-08-12T04:40:31.332Z,99.99
2017-08-12T04:40:59.477Z,99.99
2017-08-12T04:41:27.539Z,99.99
2017-08-12T04:41:55.643Z,99.99
2017-08-12T04:42:23.771Z,99.99
2017-08-12T04:42:51.900Z,99.99
2017-08-12T04:43:20.023Z,99.99
2017-08-12T04:43:48.058Z,99.99
2017-08-12T04:44:16.182Z,99.99
2017-08-12T04:44:44.224Z,99.99
2017-08-12T04:45:12.230Z,99.99
2017-08-12T04:45:40.351Z,99.99
2017-08-12T04:46:08.492Z,99.99
2017-08-12T04:46:36.520Z,99.99
2017-08-12T04:47:04.648Z,99.99
2017-08-12T04:47:32.767Z,99.99
2017-08-12T04:48:00.776Z,99.99
2017-08-12T04:48:28.804Z,99.99
2017-08-12T04:48:56.825Z,99.99
2017-08-12T04:49:24.946Z,99.99
2017-08-12T04:49:53.069Z,99.99
2017-08-12T04:50:21.187Z,99.99
2017-08-12T04:50:49.329Z,99.99
2017-08-12T04:51:17.343Z,99.99
2017-08-12T04:51:45.377Z,99.99
2017-08-12T04:52:13.441Z,99.99
2017-08-12T04:52:41.585Z,99.99
2017-08-12T04:53:09.724Z,99.99
2017-08-12T04:53:37.831Z,99.99
2017-08-12T04:54:05.963Z,99.99
2017-08-12T04:54:34.101Z,99.99
2017-08-12T04:55:02.133Z,99.99
2017-08-12T04:55:30.249Z,99.99
2017-08-12T04:55:58.293Z,99.99
2017-08-12T04:56:26.436Z,99.99
2017-08-12T04:56:54.454Z,99.99
2017-08-12T04:57:22.587Z,99.99
2017-08-12T04:57:50.629Z,99.99
2017-08-12T04:58:18.565Z,99.99
2017-08-12T04:58:46.717Z,99.99
2017-08-12T04:59:14.755Z,99.99
2017-08-12T04:59:42.700Z,99.99
2017-08-12T05:00:10.844Z,99.99
2017-08-12T05:00:38.908Z,99.99
2017-08-12T05:01:06.867Z,99.99
2017-08-12T05:01:34.987Z,99.99
2017-08-12T05:02:03.008Z,99.99
2017-08-12T05:02:31.038Z,99.99
2017-08-12T05:02:59.062Z,99.99
2017-08-12T05:03:27.160Z,99.99
2017-08-12T05:03:55.021Z,99.99
2017-08-12T05:04:23.071Z,99.99
2017-08-12T05:04:51.111Z,99.99
2017-08-12T05:05:19.310Z,99.99
2017-08-12T05:05:47.441Z,99.99
2017-08-12T05:06:15.572Z,99.99
2017-08-12T05:06:43.711Z,99.99
2017-08-12T05:07:11.823Z,99.99
2017-08-12T05:07:39.851Z,99.99
2017-08-12T05:08:08.116Z,99.99
2017-08-12T05:08:36.237Z,99.99
2017-08-12T05:09:04.102Z,99.99
2017-08-12T05:09:32.159Z,99.99
2017-08-12T05:10:00.128Z,99.99
2017-08-12T05:10:28.468Z,99.99
2017-08-12T05:10:56.507Z,99.99
2017-08-12T05:11:24.643Z,99.99
2017-08-12T05:11:52.888Z,99.99
2017-08-12T05:12:21.035Z,99.99
2017-08-12T05:12:49.091Z,99.99
2017-08-12T05:13:17.423Z,99.99
2017-08-12T05:13:45.472Z,99.99
2017-08-12T05:14:13.435Z,99.99
2017-08-12T05:14:41.755Z,99.99
2017-08-12T05:15:09.816Z,99.99
2017-08-12T05:15:38.253Z,99.99
2017-08-12T05:16:06.208Z,99.99
2017-08-12T05:16:34.219Z,99.99
2017-08-12T05:17:02.536Z,99.99
2017-08-12T05:17:30.738Z,99.99
2017-08-12T05:17:58.838Z,99.99
2017-08-12T05:18:26.892Z,99.99
2017-08-12T05:18:54.933Z,99.99
2017-08-12T05:19:23.077Z,99.99
2017-08-12T05:19:51.105Z,99.99
2017-08-12T05:20:19.428Z,99.99
2017-08-12T05:20:47.818Z,99.99
2017-08-12T05:21:16.094Z,99.99
2017-08-12T05:21:44.435Z,99.99
2017-08-12T05:22:12.524Z,99.99
2017-08-12T05:22:40.625Z,99.99
2017-08-12T05:23:09.992Z,99.99
2017-08-12T05:23:38.144Z,99.99
2017-08-12T05:24:06.262Z,99.99
2017-08-12T05:24:34.246Z,99.99
2017-08-12T05:25:02.531Z,99.99
2017-08-12T05:25:30.837Z,99.99
2017-08-12T05:25:58.967Z,99.99
2017-08-12T05:26:27.084Z,99.99
2017-08-12T05:26:55.109Z,99.99
2017-08-12T05:27:23.364Z,99.99
2017-08-12T05:27:51.592Z,99.99
2017-08-12T05:28:19.821Z,99.99
2017-08-12T05:28:47.944Z,99.99
2017-08-12T05:29:16.146Z,99.99
2017-08-12T05:29:44.130Z,99.99
2017-08-12T05:30:12.235Z,99.99
2017-08-12T05:30:40.256Z,99.99
2017-08-12T05:31:08.425Z,99.99
2017-08-12T05:31:36.566Z,99.99
2017-08-12T05:32:04.688Z,99.99
2017-08-12T05:32:32.816Z,99.99
2017-08-12T05:33:00.858Z,99.99
2017-08-12T05:33:28.685Z,99.99
2017-08-12T05:33:56.720Z,99.99
2017-08-12T05:34:24.759Z,99.99
2017-08-12T05:34:52.903Z,99.99
2017-08-12T05:35:21.008Z,99.99
2017-08-12T05:35:49.009Z,99.99
2017-08-12T05:36:17.047Z,99.99
2017-08-12T05:36:45.115Z,99.99
2017-08-12T05:37:13.248Z,99.99
2017-08-12T05:37:41.192Z,99.99
2017-08-12T05:38:09.364Z,99.99
2017-08-12T05:38:37.379Z,99.99
2017-08-12T05:39:05.510Z,99.99
2017-08-12T05:39:33.540Z,99.99
2017-08-12T05:40:01.582Z,99.99
2017-08-12T05:40:29.613Z,99.99
2017-08-12T05:40:57.682Z,99.99
2017-08-12T05:41:25.841Z,99.99
2017-08-12T05:41:53.936Z,99.99
2017-08-12T05:42:21.970Z,99.99
2017-08-12T05:42:50.058Z,99.99
2017-08-12T05:43:18.180Z,99.99
2017-08-12T05:43:46.300Z,99.99
2017-08-12T05:44:14.349Z,99.99
2017-08-12T05:44:42.506Z,99.99
2017-08-12T05:45:10.639Z,99.99
2017-08-12T05:45:38.685Z,99.99
2017-08-12T05:46:06.737Z,99.99
2017-08-12T05:46:34.831Z,99.99
2017-08-12T05:47:02.980Z,99.99
2017-08-12T05:47:31.110Z,99.99
2017-08-12T05:47:59.229Z,99.99
2017-08-12T05:48:27.255Z,99.99
2017-08-12T05:48:55.305Z,99.99
2017-08-12T05:49:23.444Z,99.99
2017-08-12T05:49:51.572Z,99.99
2017-08-12T05:50:19.597Z,99.99
2017-08-12T05:50:47.707Z,99.99
2017-08-12T05:51:15.852Z,99.99
2017-08-12T05:51:44.009Z,99.99
2017-08-12T05:52:11.953Z,99.99
2017-08-12T05:52:39.984Z,99.99
2017-08-12T05:53:08.086Z,99.99
2017-08-12T05:53:36.228Z,99.99
2017-08-12T05:54:04.260Z,99.99
2017-08-12T05:54:32.296Z,99.99
2017-08-12T05:55:00.428Z,99.99
2017-08-12T05:55:28.464Z,99.99
2017-08-12T05:55:56.606Z,99.99
2017-08-12T05:56:24.640Z,99.99
2017-08-12T05:56:52.788Z,99.99
2017-08-12T05:57:20.942Z,99.99
2017-08-12T05:57:49.083Z,99.99
2017-08-12T05:58:17.258Z,99.99
2017-08-12T05:58:45.419Z,99.99
2017-08-12T05:59:13.521Z,99.99
2017-08-12T05:59:41.674Z,99.99
2017-08-12T06:00:09.826Z,99.99
2017-08-12T06:00:37.940Z,99.99
2017-08-12T06:01:06.154Z,99.99
2017-08-12T06:01:34.276Z,99.99
2017-08-12T06:02:02.383Z,99.99
2017-08-12T06:02:30.532Z,99.99
2017-08-12T06:02:58.557Z,99.99
2017-08-12T06:03:27.276Z,99.99